Aérodrome :
LOGIN :

S'inscrire | Disclaimer

   EN    FR    IT 

 










Légende :    VFR   VFR Marginal   IFR   IFR Intensif   IFR Très Intensif
Visi : 
Plafond : 
>= 8 km
>= 3000ft
5 à 8 km
1000 à 3000 ft
1500m à 5 km
500 à 1000 ft
800 à 1500m
200 à 500 ft
< 800m
< 200 ft
Symboles :   Orages  Brouillard  Fortes neiges  Fortes précipitations  Vent > 20 kt
SIGMETs :   Divers  Orages  Givrage  Turbulence  Onde Orograph.  Cendres Volcan.







- Altitude de l'aérodrome : 1768 ft


LEHC - Huesca Pirineos

DERNIER METAR :
  • 200809Z 22007KT 0200 R30L/0250D FG VV001 01/01 Q1009

METARs EXPIRÉS :
  • 200730Z AUTO 26006KT 8000 FEW069 02/01 Q1008
  • 200700Z AUTO 27008KT 8000 NCD 02/01 Q1008
  • 200630Z AUTO 28005KT 8000 NSC 01/01 Q1008
  • 200600Z AUTO 28006KT 2100 BR FEW029/// 01/01 Q1008
  • 200530Z AUTO 27006KT 4300 1400NW BR BKN027/// OVC035/// 02/02 Q1008

TAF TAF LEHC
Valide du 20 à 03h jusqu'au 21 à 03h UTC


200200Z 2003/2103 06008KT 9999 BKN010 TX10/2013Z TN00/2006Z
PROB40
TEMPO 2003/2006 4000 RA
BECMG 2005/2008 27005KT
TEMPO 2015/2017 30010G20KT
BECMG 2017/2020 31006KT
Pas de NOTAMs connus pour ce terrain.



MET'MAP, la Météo Aéronautique d'un coup d'oeil ! - Copyright ORBIFLY Décembre 2007 - Disclaimer

ORBIFLY MET'MAP TEAM :

Programmation & Développement : Alexandra Zaïnal
Conception & Développement : Baudouin d'Aumeries
Co-Programmation & Développement : Marc-Olivier Méhu
Soutien technique & logistique : Manuel Goepfert

Contact : metmap@orbifly.com




SOURCES & CREDITS :

   NOAA